Time;durP1;ratioP1;P1;durP2;ratioP2;P2;SDS_P1;SDS_P2;PMS_P1;PMS_P2;Temp;Humidity;BMP_temperature;BMP_pressure;BME280_temperature;BME280_humidity;BME280_pressure;Samples;Min_cycle;Max_cycle;Signal;HPM_P1;HPM_P2
2021/10/28 00:14:45;;;;;;;27.20;11.88;;;;;;;;;;5071083;28;20066;-67
2021/10/28 00:17:16;;;;;;;23.52;11.10;;;;;;;;;;5070941;28;20632;-68
2021/10/28 00:19:42;;;;;;;24.52;10.18;;;;;;;;;;5070151;28;20468;-67
2021/10/28 00:22:09;;;;;;;19.60;9.60;;;;;;;;;;5070589;28;20052;-66
2021/10/28 00:24:34;;;;;;;25.83;9.60;;;;;;;;;;5070662;28;20031;-67
2021/10/28 00:26:59;;;;;;;29.02;11.65;;;;;;;;;;5071103;28;20021;-66
2021/10/28 00:29:26;;;;;;;33.15;13.02;;;;;;;;;;5070878;28;20038;-67
2021/10/28 00:31:52;;;;;;;33.55;13.73;;;;;;;;;;5070403;28;20109;-67
2021/10/28 00:34:18;;;;;;;29.70;13.93;;;;;;;;;;5070555;28;20489;-65
2021/10/28 00:36:44;;;;;;;24.70;11.30;;;;;;;;;;5070794;28;20016;-65
2021/10/28 00:39:09;;;;;;;29.35;12.57;;;;;;;;;;5070680;28;20027;-65
2021/10/28 00:41:35;;;;;;;36.25;15.05;;;;;;;;;;5070201;28;20020;-66
2021/10/28 00:44:00;;;;;;;33.13;15.45;;;;;;;;;;5070469;28;20024;-66
2021/10/28 00:46:27;;;;;;;31.40;14.32;;;;;;;;;;5070524;28;20050;-65
2021/10/28 00:48:53;;;;;;;28.92;13.23;;;;;;;;;;5070590;28;20020;-66
2021/10/28 00:51:19;;;;;;;39.63;15.32;;;;;;;;;;5070126;28;20024;-66
2021/10/28 00:53:45;;;;;;;35.63;15.20;;;;;;;;;;5069567;28;20115;-65
2021/10/28 00:56:10;;;;;;;36.38;15.02;;;;;;;;;;5070574;28;20100;-65
2021/10/28 00:58:35;;;;;;;40.17;15.05;;;;;;;;;;5070433;28;20028;-66
2021/10/28 01:01:01;;;;;;;37.17;15.50;;;;;;;;;;5070333;28;20067;-66
2021/10/28 01:03:27;;;;;;;36.33;14.27;;;;;;;;;;5069961;28;20444;-65
2021/10/28 01:05:52;;;;;;;32.40;15.73;;;;;;;;;;5069327;28;20056;-65
2021/10/28 01:08:18;;;;;;;43.28;15.60;;;;;;;;;;5070461;28;20032;-64
2021/10/28 01:10:47;;;;;;;35.92;16.35;;;;;;;;;;5070547;28;20020;-67
2021/10/28 01:13:17;;;;;;;36.72;16.23;;;;;;;;;;5070252;28;20031;-66
2021/10/28 01:15:43;;;;;;;35.38;15.45;;;;;;;;;;5069928;28;20115;-64
2021/10/28 01:18:11;;;;;;;34.00;15.45;;;;;;;;;;5070388;28;20095;-66
2021/10/28 01:20:37;;;;;;;40.65;16.65;;;;;;;;;;5070132;28;20077;-65
2021/10/28 01:23:02;;;;;;;39.38;16.40;;;;;;;;;;5070027;28;20056;-65
2021/10/28 01:25:27;;;;;;;37.25;15.75;;;;;;;;;;5070287;28;20013;-65
2021/10/28 01:27:53;;;;;;;43.08;16.25;;;;;;;;;;5069554;28;20036;-65
2021/10/28 01:30:18;;;;;;;38.40;15.60;;;;;;;;;;5070695;28;20021;-65
2021/10/28 01:32:43;;;;;;;42.40;17.33;;;;;;;;;;5073602;28;20783;-65
2021/10/28 01:35:10;;;;;;;37.25;18.00;;;;;;;;;;5073956;28;20480;-66
2021/10/28 01:37:39;;;;;;;35.38;15.80;;;;;;;;;;5073840;28;20073;-65
2021/10/28 01:40:05;;;;;;;39.85;15.95;;;;;;;;;;5073681;28;20039;-65
2021/10/28 01:42:30;;;;;;;37.17;16.27;;;;;;;;;;5073569;28;20016;-66
2021/10/28 01:44:55;;;;;;;41.75;15.50;;;;;;;;;;5072575;28;20075;-65
2021/10/28 01:47:20;;;;;;;40.57;17.47;;;;;;;;;;5073832;28;20013;-65
2021/10/28 01:49:45;;;;;;;44.28;16.92;;;;;;;;;;5073683;28;20251;-65
2021/10/28 01:52:12;;;;;;;34.63;15.88;;;;;;;;;;5073140;28;20017;-65
2021/10/28 01:54:37;;;;;;;42.83;16.80;;;;;;;;;;5073404;28;20408;-66
2021/10/28 01:57:02;;;;;;;40.60;16.48;;;;;;;;;;5073766;28;20012;-65
2021/10/28 01:59:27;;;;;;;46.53;17.48;;;;;;;;;;5073580;28;20019;-65
2021/10/28 02:01:53;;;;;;;35.47;16.58;;;;;;;;;;5073160;28;20082;-65
2021/10/28 02:04:18;;;;;;;43.88;17.38;;;;;;;;;;5072607;28;20020;-65
2021/10/28 02:06:43;;;;;;;43.95;17.02;;;;;;;;;;5073437;28;20017;-67
2021/10/28 02:09:08;;;;;;;40.00;16.17;;;;;;;;;;5073278;28;20032;-65
2021/10/28 02:11:34;;;;;;;47.53;18.80;;;;;;;;;;5073193;28;20025;-66
2021/10/28 02:13:59;;;;;;;45.58;18.38;;;;;;;;;;5072608;28;20108;-66
2021/10/28 02:16:31;;;;;;;42.42;16.63;;;;;;;;;;5073163;28;20017;-66
2021/10/28 02:18:56;;;;;;;45.70;17.65;;;;;;;;;;5072737;28;20388;-66
2021/10/28 02:21:22;;;;;;;38.65;16.30;;;;;;;;;;5072858;28;20116;-66
2021/10/28 02:23:48;;;;;;;37.78;15.45;;;;;;;;;;5072583;28;20031;-66
2021/10/28 02:26:13;;;;;;;39.33;16.60;;;;;;;;;;5072945;28;20084;-66
2021/10/28 02:28:38;;;;;;;35.72;15.50;;;;;;;;;;5072770;28;20390;-65
2021/10/28 02:31:03;;;;;;;36.87;16.33;;;;;;;;;;5072330;28;20032;-66
2021/10/28 02:33:28;;;;;;;43.40;16.85;;;;;;;;;;5072387;28;20369;-65
2021/10/28 02:35:54;;;;;;;43.08;16.88;;;;;;;;;;5071807;28;20039;-67
2021/10/28 02:38:19;;;;;;;38.03;16.75;;;;;;;;;;5072872;28;20165;-66
2021/10/28 02:40:44;;;;;;;44.33;18.23;;;;;;;;;;5072623;28;20043;-67
2021/10/28 02:43:09;;;;;;;42.83;18.15;;;;;;;;;;5071329;28;20286;-65
2021/10/28 02:45:35;;;;;;;46.75;17.67;;;;;;;;;;5072722;28;20087;-66
2021/10/28 02:48:00;;;;;;;40.60;17.40;;;;;;;;;;5072083;28;20056;-66
2021/10/28 02:50:25;;;;;;;39.35;16.42;;;;;;;;;;5072550;28;20063;-66
2021/10/28 02:52:50;;;;;;;41.20;17.10;;;;;;;;;;5072111;28;20059;-66
2021/10/28 02:55:16;;;;;;;47.47;18.55;;;;;;;;;;5072430;28;20013;-65
2021/10/28 02:57:42;;;;;;;43.35;16.58;;;;;;;;;;5072031;28;20028;-64
2021/10/28 03:00:07;;;;;;;49.08;18.58;;;;;;;;;;5071746;28;20020;-66
2021/10/28 03:02:33;;;;;;;50.22;19.17;;;;;;;;;;5072456;28;20034;-66
2021/10/28 03:04:58;;;;;;;49.33;18.67;;;;;;;;;;5072303;28;20056;-66
2021/10/28 03:07:23;;;;;;;41.67;18.10;;;;;;;;;;5072235;28;20028;-66
2021/10/28 03:09:49;;;;;;;49.00;19.08;;;;;;;;;;5072059;28;20021;-67
2021/10/28 03:12:14;;;;;;;48.15;19.13;;;;;;;;;;5071724;28;20094;-67
2021/10/28 03:14:48;;;;;;;47.85;18.35;;;;;;;;;;5071940;28;20477;-67
2021/10/28 03:27:36;;;;;;;52.17;20.38;;;;;;;;;;5071848;28;20036;-65
2021/10/28 03:30:01;;;;;;;46.45;17.75;;;;;;;;;;5071863;28;20024;-65
2021/10/28 03:32:28;;;;;;;55.30;19.05;;;;;;;;;;5071374;28;20162;-66
2021/10/28 03:34:53;;;;;;;46.70;19.20;;;;;;;;;;5071804;28;20044;-65
2021/10/28 03:37:24;;;;;;;51.90;19.13;;;;;;;;;;5071243;28;20017;-66
2021/10/28 03:45:12;;;;;;;50.47;18.40;;;;;;;;;;5070448;28;20051;-66
2021/10/28 03:47:54;;;;;;;53.85;19.58;;;;;;;;;;5071215;28;20477;-65
2021/10/28 04:29:41;;;;;;;58.22;20.38;;;;;;;;;;5070342;28;20439;-66
2021/10/28 04:32:06;;;;;;;64.63;21.77;;;;;;;;;;5070378;28;20016;-65
2021/10/28 04:34:31;;;;;;;63.67;21.10;;;;;;;;;;5070552;28;20281;-66
2021/10/28 04:36:57;;;;;;;68.82;22.45;;;;;;;;;;5070640;28;20021;-65
2021/10/28 04:39:22;;;;;;;74.55;21.63;;;;;;;;;;5070870;28;20028;-66
2021/10/28 04:41:47;;;;;;;66.05;21.77;;;;;;;;;;5070099;28;20031;-65
2021/10/28 04:44:12;;;;;;;68.90;22.83;;;;;;;;;;5070487;28;20393;-67
2021/10/28 04:46:38;;;;;;;64.88;22.50;;;;;;;;;;5070411;28;20096;-65
2021/10/28 04:49:03;;;;;;;62.80;22.17;;;;;;;;;;5070598;28;20032;-65
2021/10/28 04:51:29;;;;;;;70.97;23.20;;;;;;;;;;5070860;28;20074;-67
2021/10/28 04:53:54;;;;;;;72.13;24.98;;;;;;;;;;5069985;28;20534;-65
2021/10/28 04:56:19;;;;;;;72.15;24.52;;;;;;;;;;5070621;28;20541;-66
2021/10/28 04:58:44;;;;;;;53.80;21.37;;;;;;;;;;5070327;28;20017;-65
2021/10/28 05:01:09;;;;;;;75.80;22.85;;;;;;;;;;5070189;28;20759;-66
2021/10/28 05:03:35;;;;;;;62.92;21.60;;;;;;;;;;5068882;28;20025;-65
2021/10/28 05:06:01;;;;;;;72.05;24.25;;;;;;;;;;5071318;28;20112;-66
2021/10/28 05:08:26;;;;;;;79.75;24.38;;;;;;;;;;5073409;28;20025;-67
2021/10/28 05:10:51;;;;;;;80.47;26.27;;;;;;;;;;5073090;28;20044;-67
2021/10/28 05:13:16;;;;;;;76.65;23.77;;;;;;;;;;5073575;28;20020;-66
2021/10/28 05:15:42;;;;;;;65.70;21.40;;;;;;;;;;5074133;28;20020;-65
2021/10/28 05:18:09;;;;;;;68.97;21.95;;;;;;;;;;5073582;28;20013;-66
2021/10/28 05:20:34;;;;;;;65.15;23.58;;;;;;;;;;5072702;28;20051;-65
2021/10/28 05:22:59;;;;;;;65.05;21.48;;;;;;;;;;5072495;28;20044;-66
2021/10/28 05:25:25;;;;;;;68.83;25.77;;;;;;;;;;5072475;28;20033;-65
2021/10/28 05:27:50;;;;;;;59.17;22.23;;;;;;;;;;5073094;28;20285;-67
2021/10/28 05:30:15;;;;;;;54.47;20.53;;;;;;;;;;5073171;28;20459;-65
2021/10/28 05:32:40;;;;;;;49.60;18.70;;;;;;;;;;5072742;28;20294;-65
2021/10/28 05:35:05;;;;;;;56.17;20.80;;;;;;;;;;5074038;28;20262;-65
2021/10/28 05:37:31;;;;;;;63.95;23.73;;;;;;;;;;5073911;28;20853;-65
2021/10/28 05:39:59;;;;;;;56.13;20.13;;;;;;;;;;5071993;28;20012;-65
2021/10/28 05:42:25;;;;;;;62.92;21.13;;;;;;;;;;5061931;28;20074;-64
2021/10/28 05:44:50;;;;;;;57.25;22.42;;;;;;;;;;5056544;28;20024;-65
2021/10/28 05:47:15;;;;;;;60.72;21.10;;;;;;;;;;5056800;28;20112;-63
2021/10/28 05:49:41;;;;;;;64.23;22.63;;;;;;;;;;5057325;28;20028;-65
2021/10/28 05:52:06;;;;;;;56.97;22.15;;;;;;;;;;5071781;28;20922;-65
2021/10/28 05:54:31;;;;;;;57.10;22.52;;;;;;;;;;5072368;28;20024;-67
2021/10/28 05:56:56;;;;;;;59.70;22.95;;;;;;;;;;5072340;28;20046;-64
2021/10/28 05:59:22;;;;;;;58.72;22.88;;;;;;;;;;5072269;28;20138;-65
2021/10/28 06:01:47;;;;;;;62.58;22.23;;;;;;;;;;5072319;28;20025;-64
2021/10/28 06:04:13;;;;;;;49.45;21.10;;;;;;;;;;5072304;28;20082;-64
2021/10/28 06:06:38;;;;;;;54.53;21.67;;;;;;;;;;5073043;28;20028;-65
2021/10/28 06:09:03;;;;;;;55.40;20.50;;;;;;;;;;5073372;28;20078;-64
2021/10/28 06:11:28;;;;;;;51.88;21.30;;;;;;;;;;5072189;28;20025;-64
2021/10/28 06:13:54;;;;;;;60.77;23.07;;;;;;;;;;5071734;28;20024;-64
2021/10/28 06:16:19;;;;;;;63.80;23.70;;;;;;;;;;5071413;28;20259;-65
2021/10/28 06:18:49;;;;;;;66.53;24.08;;;;;;;;;;5070823;28;20138;-65
2021/10/28 06:21:16;;;;;;;48.33;21.23;;;;;;;;;;5072809;28;20021;-64
2021/10/28 06:23:42;;;;;;;56.38;22.13;;;;;;;;;;5072592;28;20334;-65
2021/10/28 06:26:07;;;;;;;66.63;23.58;;;;;;;;;;5072929;28;20127;-65
2021/10/28 06:28:33;;;;;;;57.22;20.92;;;;;;;;;;5072300;28;20024;-65
2021/10/28 06:30:58;;;;;;;47.67;19.38;;;;;;;;;;5072251;28;20059;-64
2021/10/28 06:33:27;;;;;;;55.70;20.95;;;;;;;;;;5071227;28;20025;-65
2021/10/28 06:35:52;;;;;;;59.85;21.40;;;;;;;;;;5071292;28;20672;-65
2021/10/28 06:38:17;;;;;;;51.30;20.75;;;;;;;;;;5072355;28;20021;-64
2021/10/28 06:40:43;;;;;;;51.60;20.30;;;;;;;;;;5072478;28;20028;-64
2021/10/28 06:43:08;;;;;;;46.78;16.80;;;;;;;;;;5072515;28;20062;-65
2021/10/28 06:45:34;;;;;;;50.90;21.48;;;;;;;;;;5072485;28;20092;-65
2021/10/28 06:48:00;;;;;;;33.33;14.05;;;;;;;;;;5071522;28;20024;-65
2021/10/28 06:50:29;;;;;;;40.70;17.25;;;;;;;;;;5071531;28;20369;-65
2021/10/28 07:03:27;;;;;;;30.95;12.57;;;;;;;;;;5072572;28;20027;-66
2021/10/28 07:05:53;;;;;;;21.92;8.98;;;;;;;;;;5070852;28;20013;-65
2021/10/28 07:08:19;;;;;;;28.10;10.45;;;;;;;;;;5070428;28;20074;-66
2021/10/28 07:10:45;;;;;;;23.77;7.45;;;;;;;;;;5070797;28;20028;-64
2021/10/28 07:13:17;;;;;;;16.42;8.20;;;;;;;;;;5070559;28;20062;-66
2021/10/28 07:15:48;;;;;;;23.23;10.57;;;;;;;;;;5071535;28;20040;-66
2021/10/28 07:24:06;;;;;;;25.13;7.55;;;;;;;;;;5070857;28;20051;-64
2021/10/28 07:54:57;;;;;;;23.45;10.05;;;;;;;;;;5069930;28;20028;-66
2021/10/28 08:18:47;;;;;;;15.63;7.20;;;;;;;;;;5050874;28;20017;-64
2021/10/28 08:23:13;;;;;;;16.45;8.10;;;;;;;;;;5059071;28;20397;-64
2021/10/28 08:31:06;;;;;;;19.05;8.73;;;;;;;;;;5070982;28;20031;-64
2021/10/28 08:33:31;;;;;;;18.10;8.95;;;;;;;;;;5069733;28;20020;-64
2021/10/28 08:36:07;;;;;;;11.77;7.03;;;;;;;;;;5068409;28;20370;-66
2021/10/28 08:38:33;;;;;;;19.42;6.70;;;;;;;;;;5069038;28;20020;-65
2021/10/28 08:40:59;;;;;;;18.30;7.88;;;;;;;;;;5068602;28;20112;-65
2021/10/28 08:43:25;;;;;;;15.07;7.93;;;;;;;;;;5068964;28;20103;-64
2021/10/28 08:45:52;;;;;;;18.27;9.50;;;;;;;;;;5069144;28;20028;-65
2021/10/28 08:48:21;;;;;;;22.85;11.15;;;;;;;;;;5069149;28;20066;-66
2021/10/28 08:50:51;;;;;;;10.65;5.57;;;;;;;;;;5070051;28;20412;-65
2021/10/28 08:53:25;;;;;;;23.02;11.88;;;;;;;;;;5070129;28;20098;-65
2021/10/28 08:55:59;;;;;;;20.90;11.38;;;;;;;;;;5070100;28;20035;-64
2021/10/28 09:26:26;;;;;;;14.43;6.20;;;;;;;;;;5068529;28;20542;-64
2021/10/28 09:29:06;;;;;;;14.27;8.10;;;;;;;;;;5069289;28;20046;-64
2021/10/28 09:31:35;;;;;;;21.88;6.82;;;;;;;;;;5068712;28;20123;-64
2021/10/28 09:45:13;;;;;;;13.02;6.93;;;;;;;;;;5014984;28;20573;-64
2021/10/28 09:48:21;;;;;;;16.20;8.95;;;;;;;;;;5068629;28;20024;-64
2021/10/28 09:50:45;;;;;;;17.00;6.60;;;;;;;;;;5056816;28;20044;-65
2021/10/28 09:58:39;;;;;;;16.08;7.03;;;;;;;;;;5073988;28;20143;-64
2021/10/28 10:01:07;;;;;;;17.63;6.53;;;;;;;;;;5073595;28;20515;-65
2021/10/28 10:03:36;;;;;;;18.27;9.00;;;;;;;;;;5071938;28;20024;-65
2021/10/28 10:06:03;;;;;;;15.60;8.30;;;;;;;;;;5071542;28;20036;-64
2021/10/28 10:08:34;;;;;;;12.13;5.45;;;;;;;;;;5062959;28;20024;-65
2021/10/28 10:11:00;;;;;;;11.07;5.85;;;;;;;;;;5062580;28;20027;-64
2021/10/28 10:13:26;;;;;;;14.18;7.50;;;;;;;;;;5050829;28;20246;-64
2021/10/28 10:15:57;;;;;;;24.00;10.85;;;;;;;;;;5072922;28;20552;-64
2021/10/28 10:18:23;;;;;;;17.40;9.35;;;;;;;;;;5073132;28;20017;-65
2021/10/28 10:20:53;;;;;;;15.57;8.13;;;;;;;;;;5071728;28;20155;-65
2021/10/28 11:21:06;;;;;;;16.00;7.40;;;;;;;;;;5069734;28;20034;-65
2021/10/28 11:30:07;;;;;;;17.23;8.25;;;;;;;;;;5066839;28;20166;-64
2021/10/28 12:24:12;;;;;;;14.45;8.13;;;;;;;;;;5068752;28;20035;-65
2021/10/28 12:43:40;;;;;;;17.05;7.88;;;;;;;;;;5069057;28;20036;-65
2021/10/28 12:46:18;;;;;;;11.55;5.28;;;;;;;;;;5067518;28;20035;-65
2021/10/28 12:51:27;;;;;;;12.82;5.97;;;;;;;;;;5070525;28;20016;-67
2021/10/28 13:02:31;;;;;;;12.38;5.30;;;;;;;;;;5069935;28;20476;-64
2021/10/28 13:50:57;;;;;;;14.50;4.37;;;;;;;;;;5074611;28;20024;-64
2021/10/28 14:20:49;;;;;;;10.75;3.15;;;;;;;;;;5068598;28;20047;-64
2021/10/28 15:34:26;;;;;;;21.63;11.13;;;;;;;;;;5070075;28;20047;-65
2021/10/28 15:38:57;;;;;;;;;;;;;;;;;;5072100;28;20446;-65
2021/10/28 15:47:34;;;;;;;39.92;13.85;;;;;;;;;;5071245;28;20051;-65
2021/10/28 16:22:04;;;;;;;22.17;9.40;;;;;;;;;;5070624;28;20070;-66
2021/10/28 16:24:31;;;;;;;32.70;14.25;;;;;;;;;;5069267;28;20485;-65
2021/10/28 16:26:57;;;;;;;31.80;15.23;;;;;;;;;;5069599;28;20021;-66
2021/10/28 16:29:22;;;;;;;22.75;10.27;;;;;;;;;;5074300;28;20012;-66
2021/10/28 16:31:48;;;;;;;25.48;11.00;;;;;;;;;;5074180;28;20031;-65
2021/10/28 16:34:14;;;;;;;25.38;10.25;;;;;;;;;;5077507;28;20024;-65
2021/10/28 16:36:39;;;;;;;30.33;11.90;;;;;;;;;;5075963;28;20488;-66
2021/10/28 16:39:09;;;;;;;26.08;9.70;;;;;;;;;;5074516;28;20092;-66
2021/10/28 16:41:36;;;;;;;34.47;16.48;;;;;;;;;;5072435;28;20392;-66
2021/10/28 16:44:02;;;;;;;26.27;8.82;;;;;;;;;;5069741;28;20087;-66
2021/10/28 16:46:27;;;;;;;37.40;15.63;;;;;;;;;;5068336;28;20016;-65
2021/10/28 16:48:53;;;;;;;17.70;8.90;;;;;;;;;;5069066;28;20099;-65
2021/10/28 16:51:18;;;;;;;30.77;14.13;;;;;;;;;;5076498;28;20050;-65
2021/10/28 16:53:45;;;;;;;30.92;14.57;;;;;;;;;;5070022;28;20700;-65
2021/10/28 16:56:12;;;;;;;19.48;9.68;;;;;;;;;;5077483;28;20023;-65
2021/10/28 16:58:37;;;;;;;34.80;16.20;;;;;;;;;;5075636;28;20016;-66
2021/10/28 17:01:02;;;;;;;36.65;14.52;;;;;;;;;;5068315;28;20028;-65
2021/10/28 17:03:28;;;;;;;37.83;16.52;;;;;;;;;;5065450;28;20032;-65
2021/10/28 17:05:53;;;;;;;32.03;14.00;;;;;;;;;;5065200;28;20028;-65
2021/10/28 17:08:18;;;;;;;27.08;11.55;;;;;;;;;;5075858;28;20028;-65
2021/10/28 17:10:44;;;;;;;38.22;16.20;;;;;;;;;;5062521;28;20043;-65
2021/10/28 17:13:10;;;;;;;33.08;16.98;;;;;;;;;;5056222;28;20044;-65
2021/10/28 17:15:35;;;;;;;29.48;9.98;;;;;;;;;;5057839;28;20017;-66
2021/10/28 17:18:00;;;;;;;38.53;17.80;;;;;;;;;;5083390;28;20607;-67
2021/10/28 17:20:27;;;;;;;29.45;13.20;;;;;;;;;;5075792;28;20263;-66
2021/10/28 17:22:54;;;;;;;45.60;18.13;;;;;;;;;;5075217;28;20027;-67
2021/10/28 17:25:21;;;;;;;29.67;14.30;;;;;;;;;;5075064;28;20017;-66
2021/10/28 17:27:47;;;;;;;34.22;15.63;;;;;;;;;;5078167;28;20020;-66
2021/10/28 17:30:13;;;;;;;33.22;13.95;;;;;;;;;;5073341;28;20078;-66
2021/10/28 17:32:40;;;;;;;41.50;12.70;;;;;;;;;;5082936;28;20031;-66
2021/10/28 17:35:06;;;;;;;33.72;14.88;;;;;;;;;;5078505;28;20078;-66
2021/10/28 17:37:31;;;;;;;37.17;16.13;;;;;;;;;;5078020;28;20024;-67
2021/10/28 17:39:56;;;;;;;40.42;19.83;;;;;;;;;;5081694;28;20016;-66
2021/10/28 17:42:21;;;;;;;35.72;17.48;;;;;;;;;;5074629;28;20488;-66
2021/10/28 17:44:52;;;;;;;34.40;13.37;;;;;;;;;;5064448;28;20074;-66
2021/10/28 17:47:18;;;;;;;40.67;16.55;;;;;;;;;;5069262;28;20282;-66
2021/10/28 17:49:44;;;;;;;50.83;24.23;;;;;;;;;;5070393;28;20028;-66
2021/10/28 17:52:10;;;;;;;40.25;17.77;;;;;;;;;;5072733;28;20389;-67
2021/10/28 17:54:36;;;;;;;47.72;24.08;;;;;;;;;;5069245;28;20029;-66
2021/10/28 17:57:01;;;;;;;43.47;17.67;;;;;;;;;;5068988;28;20029;-67
2021/10/28 17:59:27;;;;;;;45.80;17.02;;;;;;;;;;5085903;28;20030;-66
2021/10/28 18:01:52;;;;;;;31.50;14.60;;;;;;;;;;5064400;28;20021;-66
2021/10/28 18:04:17;;;;;;;32.85;15.40;;;;;;;;;;5059752;28;20073;-66
2021/10/28 18:06:42;;;;;;;51.10;23.20;;;;;;;;;;5076024;28;20428;-66
2021/10/28 18:09:08;;;;;;;42.47;19.17;;;;;;;;;;5069908;28;20028;-66
2021/10/28 18:11:33;;;;;;;34.63;13.45;;;;;;;;;;5061912;28;20028;-66
2021/10/28 18:13:59;;;;;;;32.03;12.25;;;;;;;;;;5070398;28;20090;-66
2021/10/28 18:16:26;;;;;;;45.50;18.73;;;;;;;;;;5068823;28;20052;-66
2021/10/28 18:18:58;;;;;;;40.25;17.05;;;;;;;;;;5071202;28;20444;-66
2021/10/28 18:21:24;;;;;;;49.50;22.67;;;;;;;;;;5065047;28;20507;-66
2021/10/28 18:23:50;;;;;;;37.22;14.07;;;;;;;;;;5070680;28;20374;-66
2021/10/28 18:26:16;;;;;;;42.03;16.67;;;;;;;;;;5071485;28;20036;-66
2021/10/28 18:28:41;;;;;;;39.00;16.15;;;;;;;;;;5071887;28;20055;-66
2021/10/28 18:31:06;;;;;;;51.33;20.75;;;;;;;;;;5071042;28;20044;-67
2021/10/28 18:33:32;;;;;;;40.08;16.95;;;;;;;;;;5058245;28;20040;-66
2021/10/28 18:35:58;;;;;;;51.78;25.50;;;;;;;;;;5053196;28;20029;-65
2021/10/28 18:38:23;;;;;;;52.22;22.73;;;;;;;;;;5068271;28;20033;-66
2021/10/28 18:40:48;;;;;;;50.25;18.95;;;;;;;;;;5052771;28;20025;-65
2021/10/28 18:43:16;;;;;;;44.72;17.05;;;;;;;;;;5052167;28;20032;-65
2021/10/28 18:45:42;;;;;;;47.40;20.23;;;;;;;;;;5052560;28;20025;-65
2021/10/28 18:48:08;;;;;;;55.80;24.60;;;;;;;;;;5068143;28;20142;-66
2021/10/28 18:50:34;;;;;;;43.33;18.38;;;;;;;;;;5070061;28;20036;-66
2021/10/28 18:52:59;;;;;;;55.47;23.63;;;;;;;;;;5063004;28;20032;-65
2021/10/28 18:55:24;;;;;;;46.47;16.58;;;;;;;;;;5067184;28;20048;-66
2021/10/28 18:57:49;;;;;;;38.70;15.20;;;;;;;;;;5075843;28;20012;-67
2021/10/28 19:00:15;;;;;;;51.25;21.05;;;;;;;;;;5053395;28;20025;-68
2021/10/28 19:02:40;;;;;;;52.25;22.40;;;;;;;;;;5060961;28;20602;-66
2021/10/28 19:05:06;;;;;;;50.85;23.50;;;;;;;;;;5063622;28;20104;-64
2021/10/28 19:07:32;;;;;;;32.08;15.07;;;;;;;;;;5073527;28;20384;-66
2021/10/28 19:09:57;;;;;;;51.80;19.27;;;;;;;;;;5071338;28;20020;-67
2021/10/28 19:12:23;;;;;;;50.63;19.95;;;;;;;;;;5055720;28;20441;-66
2021/10/28 19:14:48;;;;;;;54.55;26.33;;;;;;;;;;5057951;28;20067;-66
2021/10/28 19:17:14;;;;;;;56.92;24.17;;;;;;;;;;5067424;28;20370;-66
2021/10/28 19:19:39;;;;;;;56.70;23.88;;;;;;;;;;5058666;28;20021;-67
2021/10/28 19:22:05;;;;;;;24.80;12.60;;;;;;;;;;5052074;28;20013;-66
2021/10/28 19:24:31;;;;;;;57.22;24.88;;;;;;;;;;5051492;28;20063;-65
2021/10/28 19:26:56;;;;;;;57.10;24.95;;;;;;;;;;5067941;28;20120;-66
2021/10/28 19:29:22;;;;;;;42.80;18.35;;;;;;;;;;5071537;28;20653;-66
2021/10/28 19:32:03;;;;;;;50.47;19.63;;;;;;;;;;5071186;28;20070;-66
2021/10/28 19:34:34;;;;;;;44.30;18.88;;;;;;;;;;5054016;28;20083;-66
2021/10/28 19:42:05;;;;;;;38.88;14.55;;;;;;;;;;5064038;28;20430;-66
2021/10/28 19:47:14;;;;;;;52.92;22.13;;;;;;;;;;5069932;28;19982;-66
2021/10/28 19:49:44;;;;;;;55.50;21.15;;;;;;;;;;5072065;28;20473;-67
2021/10/28 19:52:12;;;;;;;38.87;14.60;;;;;;;;;;5067379;28;20024;-65
2021/10/28 19:54:38;;;;;;;45.95;21.52;;;;;;;;;;5065296;28;20298;-66
2021/10/28 19:57:05;;;;;;;35.85;17.15;;;;;;;;;;5067477;28;20017;-65
2021/10/28 19:59:34;;;;;;;23.50;10.10;;;;;;;;;;5069505;28;20032;-66
2021/10/28 20:02:05;;;;;;;27.30;10.95;;;;;;;;;;5070368;28;20024;-66
2021/10/28 20:04:49;;;;;;;40.20;16.08;;;;;;;;;;5068730;28;20369;-66
2021/10/28 20:21:10;;;;;;;28.73;10.63;;;;;;;;;;5029748;28;20025;-67
2021/10/28 20:23:35;;;;;;;33.78;15.45;;;;;;;;;;5067963;28;20025;-66
2021/10/28 20:26:00;;;;;;;36.35;14.35;;;;;;;;;;5059369;28;20029;-67
2021/10/28 20:28:26;;;;;;;33.03;11.55;;;;;;;;;;5065139;28;20461;-64
2021/10/28 20:30:55;;;;;;;40.85;14.27;;;;;;;;;;5060543;28;20044;-64
2021/10/28 20:33:21;;;;;;;39.90;16.38;;;;;;;;;;5071189;28;20032;-65
2021/10/28 20:38:38;;;;;;;36.85;15.30;;;;;;;;;;5041401;28;20029;-67
2021/10/28 20:41:05;;;;;;;54.67;22.02;;;;;;;;;;5055082;28;20021;-66
2021/10/28 20:43:30;;;;;;;28.38;11.52;;;;;;;;;;5067034;28;20033;-65
2021/10/28 20:45:55;;;;;;;53.05;20.35;;;;;;;;;;5068150;28;20028;-66
2021/10/28 20:48:20;;;;;;;40.20;14.35;;;;;;;;;;5067952;28;20027;-65
2021/10/28 20:50:45;;;;;;;21.33;10.48;;;;;;;;;;5066447;28;20020;-66
2021/10/28 20:53:11;;;;;;;37.42;15.18;;;;;;;;;;5064919;28;20036;-66
2021/10/28 20:55:36;;;;;;;28.50;12.95;;;;;;;;;;5067914;28;20023;-66
2021/10/28 20:58:01;;;;;;;41.13;17.52;;;;;;;;;;5063718;28;20031;-66
2021/10/28 21:00:27;;;;;;;35.38;16.17;;;;;;;;;;5068046;28;20074;-66
2021/10/28 21:02:54;;;;;;;56.17;18.88;;;;;;;;;;5067711;28;20033;-65
2021/10/28 21:05:21;;;;;;;42.92;16.75;;;;;;;;;;5066546;28;20095;-66
2021/10/28 21:07:47;;;;;;;32.72;14.25;;;;;;;;;;5065096;28;20024;-66
2021/10/28 21:10:17;;;;;;;40.67;16.58;;;;;;;;;;5067455;28;20369;-66
2021/10/28 21:12:42;;;;;;;34.25;14.18;;;;;;;;;;5067636;28;20020;-66
2021/10/28 21:15:08;;;;;;;27.92;10.95;;;;;;;;;;5081445;28;20386;-66
2021/10/28 21:17:33;;;;;;;29.55;11.40;;;;;;;;;;5067482;28;20021;-65
2021/10/28 21:19:58;;;;;;;49.95;17.92;;;;;;;;;;5068393;28;20020;-65
2021/10/28 21:22:24;;;;;;;43.28;16.65;;;;;;;;;;5067156;28;20548;-66
2021/10/28 21:24:50;;;;;;;51.40;20.05;;;;;;;;;;5067958;28;20033;-66
2021/10/28 21:27:19;;;;;;;42.00;17.38;;;;;;;;;;5067906;28;20039;-66
2021/10/28 21:29:45;;;;;;;26.15;10.68;;;;;;;;;;5059630;28;20074;-68
2021/10/28 21:32:11;;;;;;;25.73;10.75;;;;;;;;;;5069045;28;20025;-66
2021/10/28 21:34:37;;;;;;;26.58;8.00;;;;;;;;;;5077917;28;20021;-67
2021/10/28 21:37:03;;;;;;;35.15;14.15;;;;;;;;;;5087813;28;20016;-67
2021/10/28 21:39:28;;;;;;;29.98;12.45;;;;;;;;;;5090211;28;20020;-67
2021/10/28 21:41:53;;;;;;;30.58;13.00;;;;;;;;;;5089787;28;20099;-68
2021/10/28 21:44:18;;;;;;;40.77;15.37;;;;;;;;;;5079805;28;20021;-67
2021/10/28 21:46:44;;;;;;;27.77;9.57;;;;;;;;;;5072883;28;20289;-63
2021/10/28 21:49:10;;;;;;;31.42;12.98;;;;;;;;;;5081813;28;20054;-64
2021/10/28 21:51:35;;;;;;;45.50;16.42;;;;;;;;;;5092211;28;20095;-65
2021/10/28 21:54:05;;;;;;;34.80;16.50;;;;;;;;;;5086491;28;20077;-65
2021/10/28 21:56:37;;;;;;;27.77;13.13;;;;;;;;;;5075607;28;20160;-65
2021/10/28 22:01:55;;;;;;;44.13;16.95;;;;;;;;;;5080869;28;20066;-66
2021/10/28 22:25:58;;;;;;;25.17;10.63;;;;;;;;;;5073247;28;20082;-67
2021/10/28 22:28:23;;;;;;;26.85;10.95;;;;;;;;;;5073177;28;20478;-65
2021/10/28 22:30:48;;;;;;;27.30;11.75;;;;;;;;;;5073044;28;20035;-68
2021/10/28 22:33:13;;;;;;;41.67;17.30;;;;;;;;;;5086774;28;20032;-66
2021/10/28 22:36:24;;;;;;;28.17;13.07;;;;;;;;;;5091321;28;20012;-67
2021/10/28 22:38:32;;;;;;;37.17;15.75;;;;;;;;;;5059382;28;20097;-67
2021/10/28 22:40:57;;;;;;;29.95;12.18;;;;;;;;;;5073025;28;20138;-66
2021/10/28 22:43:22;;;;;;;35.95;14.40;;;;;;;;;;5084586;28;20619;-67
2021/10/28 22:45:48;;;;;;;29.47;11.37;;;;;;;;;;5067986;28;20469;-63
2021/10/28 22:48:15;;;;;;;31.67;13.80;;;;;;;;;;5073106;28;20258;-67
2021/10/28 22:50:42;;;;;;;23.80;11.45;;;;;;;;;;5072971;28;20028;-65
2021/10/28 22:53:08;;;;;;;38.28;15.50;;;;;;;;;;5085255;28;20031;-68
2021/10/28 22:55:38;;;;;;;40.85;16.75;;;;;;;;;;5075500;28;20025;-66
2021/10/28 22:58:14;;;;;;;37.67;15.98;;;;;;;;;;5052728;28;20024;-68
2021/10/28 23:03:50;;;;;;;37.72;16.10;;;;;;;;;;5079377;28;20277;-67
2021/10/28 23:07:03;;;;;;;46.97;18.77;;;;;;;;;;5086822;28;20366;-67
2021/10/28 23:21:58;;;;;;;31.55;11.63;;;;;;;;;;5074265;28;20741;-63
2021/10/28 23:24:23;;;;;;;39.45;13.02;;;;;;;;;;5082569;28;20103;-64
2021/10/28 23:26:48;;;;;;;34.03;14.52;;;;;;;;;;5075622;28;20051;-64
2021/10/28 23:29:14;;;;;;;27.43;9.87;;;;;;;;;;5087958;28;20055;-64
2021/10/28 23:31:39;;;;;;;28.02;10.75;;;;;;;;;;5083506;28;20263;-65
2021/10/28 23:34:05;;;;;;;44.15;18.60;;;;;;;;;;5075112;28;20106;-66
2021/10/28 23:36:30;;;;;;;26.17;12.32;;;;;;;;;;5085586;28;20016;-66
2021/10/28 23:38:55;;;;;;;34.28;12.48;;;;;;;;;;5074768;28;20032;-66
2021/10/28 23:41:20;;;;;;;34.03;13.05;;;;;;;;;;5083762;28;20020;-66
2021/10/28 23:43:46;;;;;;;31.63;13.25;;;;;;;;;;5084521;28;20017;-66
2021/10/28 23:46:11;;;;;;;40.97;16.95;;;;;;;;;;5071488;28;20021;-66
2021/10/28 23:48:36;;;;;;;35.72;12.68;;;;;;;;;;5071182;28;20027;-66
2021/10/28 23:51:02;;;;;;;37.70;17.77;;;;;;;;;;5071675;28;20023;-67
2021/10/28 23:53:27;;;;;;;38.25;15.98;;;;;;;;;;5070475;28;20032;-66
2021/10/28 23:55:52;;;;;;;44.53;20.33;;;;;;;;;;5055094;28;20021;-64